sensor_id;sensor_type;location;lat;lon;timestamp;temperature;humidity
18577;DHT22;9418;52.694;13.294;2024-01-11T00:02:25;-6.90;99.90
18577;DHT22;9418;52.694;13.294;2024-01-11T00:04:52;-6.90;99.90
18577;DHT22;9418;52.694;13.294;2024-01-11T00:07:18;-6.80;99.90
18577;DHT22;9418;52.694;13.294;2024-01-11T00:09:45;-6.80;99.90
18577;DHT22;9418;52.694;13.294;2024-01-11T00:12:12;-6.80;99.90
18577;DHT22;9418;52.694;13.294;2024-01-11T00:14:38;-6.80;99.90
18577;DHT22;9418;52.694;13.294;2024-01-11T00:17:05;-6.80;99.90
18577;DHT22;9418;52.694;13.294;2024-01-11T00:19:33;-6.80;99.90
18577;DHT22;9418;52.694;13.294;2024-01-11T00:22:00;-6.80;99.90
18577;DHT22;9418;52.694;13.294;2024-01-11T00:24:26;-6.80;99.90
18577;DHT22;9418;52.694;13.294;2024-01-11T00:26:53;-6.80;99.90
18577;DHT22;9418;52.694;13.294;2024-01-11T00:29:19;-6.80;99.90
18577;DHT22;9418;52.694;13.294;2024-01-11T00:31:46;-6.80;99.90
18577;DHT22;9418;52.694;13.294;2024-01-11T00:34:12;-6.70;99.90
18577;DHT22;9418;52.694;13.294;2024-01-11T00:36:40;-6.60;99.90
18577;DHT22;9418;52.694;13.294;2024-01-11T00:39:07;-6.60;99.90
18577;DHT22;9418;52.694;13.294;2024-01-11T00:41:34;-6.50;99.90
18577;DHT22;9418;52.694;13.294;2024-01-11T00:44:01;-6.50;99.90
18577;DHT22;9418;52.694;13.294;2024-01-11T00:46:27;-6.40;99.90
18577;DHT22;9418;52.694;13.294;2024-01-11T00:48:54;-6.40;99.90
18577;DHT22;9418;52.694;13.294;2024-01-11T00:51:20;-6.40;99.90
18577;DHT22;9418;52.694;13.294;2024-01-11T00:53:48;-6.50;99.90
18577;DHT22;9418;52.694;13.294;2024-01-11T00:56:15;-6.40;99.90
18577;DHT22;9418;52.694;13.294;2024-01-11T00:58:42;-6.40;99.90
18577;DHT22;9418;52.694;13.294;2024-01-11T01:01:09;-6.30;99.90
18577;DHT22;9418;52.694;13.294;2024-01-11T01:03:35;-6.20;99.90
18577;DHT22;9418;52.694;13.294;2024-01-11T01:06:02;-6.20;99.90
18577;DHT22;9418;52.694;13.294;2024-01-11T01:08:29;-6.20;99.90
18577;DHT22;9418;52.694;13.294;2024-01-11T01:10:57;-6.10;99.90
18577;DHT22;9418;52.694;13.294;2024-01-11T01:13:24;-6.10;99.90
18577;DHT22;9418;52.694;13.294;2024-01-11T01:15:50;-6.10;99.90
18577;DHT22;9418;52.694;13.294;2024-01-11T01:18:17;-6.00;99.90
18577;DHT22;9418;52.694;13.294;2024-01-11T01:20:43;-6.00;99.90
18577;DHT22;9418;52.694;13.294;2024-01-11T01:23:10;-6.00;99.90
18577;DHT22;9418;52.694;13.294;2024-01-11T01:25:36;-6.00;99.90
18577;DHT22;9418;52.694;13.294;2024-01-11T01:28:05;-6.00;99.90
18577;DHT22;9418;52.694;13.294;2024-01-11T01:30:31;-5.80;99.90
18577;DHT22;9418;52.694;13.294;2024-01-11T01:32:58;-5.80;99.90
18577;DHT22;9418;52.694;13.294;2024-01-11T01:35:25;-5.70;99.90
18577;DHT22;9418;52.694;13.294;2024-01-11T01:37:51;-5.70;99.90
18577;DHT22;9418;52.694;13.294;2024-01-11T01:40:18;-5.60;99.90
18577;DHT22;9418;52.694;13.294;2024-01-11T01:42:45;-5.60;99.90
18577;DHT22;9418;52.694;13.294;2024-01-11T01:45:15;-5.50;99.90
18577;DHT22;9418;52.694;13.294;2024-01-11T01:47:43;-5.40;99.90
18577;DHT22;9418;52.694;13.294;2024-01-11T01:50:10;-5.40;99.90
18577;DHT22;9418;52.694;13.294;2024-01-11T01:52:39;-5.40;98.00
18577;DHT22;9418;52.694;13.294;2024-01-11T01:55:07;-5.30;94.80
18577;DHT22;9418;52.694;13.294;2024-01-11T01:57:36;-5.30;94.30
18577;DHT22;9418;52.694;13.294;2024-01-11T02:00:05;-5.30;94.10
18577;DHT22;9418;52.694;13.294;2024-01-11T02:02:34;-5.20;89.00
18577;DHT22;9418;52.694;13.294;2024-01-11T02:05:01;-5.20;87.10
18577;DHT22;9418;52.694;13.294;2024-01-11T02:07:28;-5.20;88.60
18577;DHT22;9418;52.694;13.294;2024-01-11T02:09:55;-5.10;83.20
18577;DHT22;9418;52.694;13.294;2024-01-11T02:12:22;-5.10;84.70
18577;DHT22;9418;52.694;13.294;2024-01-11T02:14:50;-5.10;83.90
18577;DHT22;9418;52.694;13.294;2024-01-11T02:17:17;-5.00;78.40
18577;DHT22;9418;52.694;13.294;2024-01-11T02:19:45;-5.00;78.50
18577;DHT22;9418;52.694;13.294;2024-01-11T02:22:17;-5.00;74.90
18577;DHT22;9418;52.694;13.294;2024-01-11T02:24:48;-4.90;72.70
18577;DHT22;9418;52.694;13.294;2024-01-11T02:27:14;-4.90;73.00
18577;DHT22;9418;52.694;13.294;2024-01-11T02:29:41;-4.90;71.90
18577;DHT22;9418;52.694;13.294;2024-01-11T02:32:08;-4.90;72.50
18577;DHT22;9418;52.694;13.294;2024-01-11T02:34:35;-4.90;72.30
18577;DHT22;9418;52.694;13.294;2024-01-11T02:37:02;-4.90;72.00
18577;DHT22;9418;52.694;13.294;2024-01-11T02:39:30;-4.70;69.80
18577;DHT22;9418;52.694;13.294;2024-01-11T02:41:59;-4.80;70.50
18577;DHT22;9418;52.694;13.294;2024-01-11T02:44:26;-4.70;71.10
18577;DHT22;9418;52.694;13.294;2024-01-11T02:46:53;-4.70;70.00
18577;DHT22;9418;52.694;13.294;2024-01-11T02:49:19;-4.60;71.10
18577;DHT22;9418;52.694;13.294;2024-01-11T02:51:46;-4.60;72.30
18577;DHT22;9418;52.694;13.294;2024-01-11T02:54:12;-4.70;73.80
18577;DHT22;9418;52.694;13.294;2024-01-11T02:56:39;-4.70;72.30
18577;DHT22;9418;52.694;13.294;2024-01-11T02:59:07;-4.60;73.00
18577;DHT22;9418;52.694;13.294;2024-01-11T03:01:33;-4.70;74.80
18577;DHT22;9418;52.694;13.294;2024-01-11T03:04:00;-4.60;73.80
18577;DHT22;9418;52.694;13.294;2024-01-11T03:06:27;-4.60;75.10
18577;DHT22;9418;52.694;13.294;2024-01-11T03:08:53;-4.50;73.70
18577;DHT22;9418;52.694;13.294;2024-01-11T03:11:20;-4.60;75.10
18577;DHT22;9418;52.694;13.294;2024-01-11T03:13:46;-4.60;75.40
18577;DHT22;9418;52.694;13.294;2024-01-11T03:16:14;-4.50;74.00
18577;DHT22;9418;52.694;13.294;2024-01-11T03:18:41;-4.50;75.50
18577;DHT22;9418;52.694;13.294;2024-01-11T03:21:07;-4.50;74.30
18577;DHT22;9418;52.694;13.294;2024-01-11T03:23:34;-4.60;76.70
18577;DHT22;9418;52.694;13.294;2024-01-11T03:26:00;-4.50;74.30
18577;DHT22;9418;52.694;13.294;2024-01-11T03:28:27;-4.50;72.60
18577;DHT22;9418;52.694;13.294;2024-01-11T03:30:53;-4.50;72.20
18577;DHT22;9418;52.694;13.294;2024-01-11T03:33:21;-4.40;74.50
18577;DHT22;9418;52.694;13.294;2024-01-11T03:35:48;-4.40;72.10
18577;DHT22;9418;52.694;13.294;2024-01-11T03:38:14;-4.40;74.30
18577;DHT22;9418;52.694;13.294;2024-01-11T03:40:41;-4.40;75.10
18577;DHT22;9418;52.694;13.294;2024-01-11T03:43:08;-4.40;75.20
18577;DHT22;9418;52.694;13.294;2024-01-11T03:45:34;-4.40;75.80
18577;DHT22;9418;52.694;13.294;2024-01-11T03:48:01;-4.40;76.00
18577;DHT22;9418;52.694;13.294;2024-01-11T03:50:29;-4.40;77.00
18577;DHT22;9418;52.694;13.294;2024-01-11T03:52:56;-4.50;79.90
18577;DHT22;9418;52.694;13.294;2024-01-11T03:55:22;-4.40;76.30
18577;DHT22;9418;52.694;13.294;2024-01-11T03:57:50;-4.30;75.10
18577;DHT22;9418;52.694;13.294;2024-01-11T04:00:18;-4.30;77.30
18577;DHT22;9418;52.694;13.294;2024-01-11T04:02:45;-4.40;83.40
18577;DHT22;9418;52.694;13.294;2024-01-11T04:05:11;-4.30;78.80
18577;DHT22;9418;52.694;13.294;2024-01-11T04:07:39;-4.30;79.90
18577;DHT22;9418;52.694;13.294;2024-01-11T04:10:07;-4.30;79.80
18577;DHT22;9418;52.694;13.294;2024-01-11T04:12:35;-4.30;80.30
18577;DHT22;9418;52.694;13.294;2024-01-11T04:15:02;-4.30;78.10
18577;DHT22;9418;52.694;13.294;2024-01-11T04:17:28;-4.30;81.60
18577;DHT22;9418;52.694;13.294;2024-01-11T04:19:55;-4.30;79.20
18577;DHT22;9418;52.694;13.294;2024-01-11T04:22:22;-4.30;78.10
18577;DHT22;9418;52.694;13.294;2024-01-11T04:24:49;-4.20;78.70
18577;DHT22;9418;52.694;13.294;2024-01-11T04:27:16;-4.20;79.00
18577;DHT22;9418;52.694;13.294;2024-01-11T04:29:42;-4.20;79.10
18577;DHT22;9418;52.694;13.294;2024-01-11T04:32:09;-4.20;83.50
18577;DHT22;9418;52.694;13.294;2024-01-11T04:34:36;-4.20;83.70
18577;DHT22;9418;52.694;13.294;2024-01-11T04:37:02;-4.20;84.50
18577;DHT22;9418;52.694;13.294;2024-01-11T04:39:29;-4.10;87.30
18577;DHT22;9418;52.694;13.294;2024-01-11T04:41:59;-4.20;89.00
18577;DHT22;9418;52.694;13.294;2024-01-11T04:44:26;-4.10;87.90
18577;DHT22;9418;52.694;13.294;2024-01-11T04:46:52;-4.10;88.00
18577;DHT22;9418;52.694;13.294;2024-01-11T04:49:19;-4.10;95.30
18577;DHT22;9418;52.694;13.294;2024-01-11T04:51:45;-4.10;90.80
18577;DHT22;9418;52.694;13.294;2024-01-11T04:54:12;-4.10;89.40
18577;DHT22;9418;52.694;13.294;2024-01-11T04:56:38;-4.00;90.80
18577;DHT22;9418;52.694;13.294;2024-01-11T04:59:06;-4.00;87.80
18577;DHT22;9418;52.694;13.294;2024-01-11T05:01:33;-4.00;91.10
18577;DHT22;9418;52.694;13.294;2024-01-11T05:03:59;-4.00;90.90
18577;DHT22;9418;52.694;13.294;2024-01-11T05:06:26;-4.00;90.80
18577;DHT22;9418;52.694;13.294;2024-01-11T05:08:52;-3.90;89.50
18577;DHT22;9418;52.694;13.294;2024-01-11T05:11:21;-3.90;89.80
18577;DHT22;9418;52.694;13.294;2024-01-11T05:13:49;-3.90;88.70
18577;DHT22;9418;52.694;13.294;2024-01-11T05:16:19;-3.80;87.60
18577;DHT22;9418;52.694;13.294;2024-01-11T05:18:46;-3.90;91.60
18577;DHT22;9418;52.694;13.294;2024-01-11T05:21:13;-3.80;88.30
18577;DHT22;9418;52.694;13.294;2024-01-11T05:23:40;-3.70;88.50
18577;DHT22;9418;52.694;13.294;2024-01-11T05:26:07;-3.70;90.50
18577;DHT22;9418;52.694;13.294;2024-01-11T05:28:34;-3.70;90.60
18577;DHT22;9418;52.694;13.294;2024-01-11T05:31:01;-3.60;86.80
18577;DHT22;9418;52.694;13.294;2024-01-11T05:33:30;-3.60;89.50
18577;DHT22;9418;52.694;13.294;2024-01-11T05:35:56;-3.50;86.00
18577;DHT22;9418;52.694;13.294;2024-01-11T05:38:23;-3.50;85.40
18577;DHT22;9418;52.694;13.294;2024-01-11T05:40:50;-3.50;88.50
18577;DHT22;9418;52.694;13.294;2024-01-11T05:43:16;-3.50;84.10
18577;DHT22;9418;52.694;13.294;2024-01-11T05:45:43;-3.40;83.40
18577;DHT22;9418;52.694;13.294;2024-01-11T05:48:10;-3.40;83.50
18577;DHT22;9418;52.694;13.294;2024-01-11T05:50:38;-3.40;82.10
18577;DHT22;9418;52.694;13.294;2024-01-11T05:53:04;-3.40;82.50
18577;DHT22;9418;52.694;13.294;2024-01-11T05:55:31;-3.30;82.60
18577;DHT22;9418;52.694;13.294;2024-01-11T05:57:58;-3.30;80.80
18577;DHT22;9418;52.694;13.294;2024-01-11T06:00:24;-3.20;79.00
18577;DHT22;9418;52.694;13.294;2024-01-11T06:02:51;-3.30;80.40
18577;DHT22;9418;52.694;13.294;2024-01-11T06:05:17;-3.20;78.30
18577;DHT22;9418;52.694;13.294;2024-01-11T06:07:45;-3.20;78.60
18577;DHT22;9418;52.694;13.294;2024-01-11T06:10:12;-3.20;79.10
18577;DHT22;9418;52.694;13.294;2024-01-11T06:12:39;-3.20;77.40
18577;DHT22;9418;52.694;13.294;2024-01-11T06:15:07;-3.10;76.80
18577;DHT22;9418;52.694;13.294;2024-01-11T06:17:35;-3.20;78.10
18577;DHT22;9418;52.694;13.294;2024-01-11T06:20:01;-3.20;77.50
18577;DHT22;9418;52.694;13.294;2024-01-11T06:22:29;-3.20;74.60
18577;DHT22;9418;52.694;13.294;2024-01-11T06:24:56;-3.10;71.40
18577;DHT22;9418;52.694;13.294;2024-01-11T06:27:25;-3.10;73.70
18577;DHT22;9418;52.694;13.294;2024-01-11T06:29:51;-3.10;73.90
18577;DHT22;9418;52.694;13.294;2024-01-11T06:32:18;-3.00;70.20
18577;DHT22;9418;52.694;13.294;2024-01-11T06:34:45;-3.00;71.40
18577;DHT22;9418;52.694;13.294;2024-01-11T06:37:12;-3.00;69.30
18577;DHT22;9418;52.694;13.294;2024-01-11T06:39:39;-3.00;69.30
18577;DHT22;9418;52.694;13.294;2024-01-11T06:42:07;-2.90;70.50
18577;DHT22;9418;52.694;13.294;2024-01-11T06:44:33;-2.90;69.50
18577;DHT22;9418;52.694;13.294;2024-01-11T06:47:00;-2.90;69.70
18577;DHT22;9418;52.694;13.294;2024-01-11T06:49:29;-2.80;68.70
18577;DHT22;9418;52.694;13.294;2024-01-11T06:51:56;-2.80;68.80
18577;DHT22;9418;52.694;13.294;2024-01-11T06:54:22;-2.80;71.70
18577;DHT22;9418;52.694;13.294;2024-01-11T06:56:49;-2.80;69.50
18577;DHT22;9418;52.694;13.294;2024-01-11T06:59:17;-2.80;71.70
18577;DHT22;9418;52.694;13.294;2024-01-11T07:01:44;-2.80;71.50
18577;DHT22;9418;52.694;13.294;2024-01-11T07:04:10;-2.70;68.80
18577;DHT22;9418;52.694;13.294;2024-01-11T07:06:37;-2.70;67.90
18577;DHT22;9418;52.694;13.294;2024-01-11T07:09:04;-2.70;68.00
18577;DHT22;9418;52.694;13.294;2024-01-11T07:11:31;-2.60;65.00
18577;DHT22;9418;52.694;13.294;2024-01-11T07:13:58;-2.50;65.10
18577;DHT22;9418;52.694;13.294;2024-01-11T07:16:26;-2.50;63.60
18577;DHT22;9418;52.694;13.294;2024-01-11T07:18:52;-2.50;63.40
18577;DHT22;9418;52.694;13.294;2024-01-11T07:21:22;-2.40;64.60
18577;DHT22;9418;52.694;13.294;2024-01-11T07:23:54;-2.40;63.50
18577;DHT22;9418;52.694;13.294;2024-01-11T07:26:22;-2.40;64.80
18577;DHT22;9418;52.694;13.294;2024-01-11T07:28:48;-2.30;62.10
18577;DHT22;9418;52.694;13.294;2024-01-11T07:31:15;-2.30;60.60
18577;DHT22;9418;52.694;13.294;2024-01-11T07:33:43;-2.20;59.10
18577;DHT22;9418;52.694;13.294;2024-01-11T07:36:11;-2.20;57.90
18577;DHT22;9418;52.694;13.294;2024-01-11T07:38:37;-2.20;58.40
18577;DHT22;9418;52.694;13.294;2024-01-11T07:41:04;-2.10;53.50
18577;DHT22;9418;52.694;13.294;2024-01-11T07:43:31;-2.10;51.90
18577;DHT22;9418;52.694;13.294;2024-01-11T07:46:00;-2.10;50.90
18577;DHT22;9418;52.694;13.294;2024-01-11T07:48:27;-2.00;49.20
18577;DHT22;9418;52.694;13.294;2024-01-11T07:50:55;-2.00;49.60
18577;DHT22;9418;52.694;13.294;2024-01-11T07:53:22;-2.00;48.50
18577;DHT22;9418;52.694;13.294;2024-01-11T07:55:49;-2.00;48.20
18577;DHT22;9418;52.694;13.294;2024-01-11T07:58:16;-1.90;46.50
18577;DHT22;9418;52.694;13.294;2024-01-11T08:00:43;-1.90;45.70
18577;DHT22;9418;52.694;13.294;2024-01-11T08:03:10;-1.80;45.70
18577;DHT22;9418;52.694;13.294;2024-01-11T08:05:37;-1.80;45.50
18577;DHT22;9418;52.694;13.294;2024-01-11T08:08:05;-1.80;46.80
18577;DHT22;9418;52.694;13.294;2024-01-11T08:10:32;-1.80;46.90
18577;DHT22;9418;52.694;13.294;2024-01-11T08:12:59;-1.80;45.30
18577;DHT22;9418;52.694;13.294;2024-01-11T08:15:26;-1.70;43.70
18577;DHT22;9418;52.694;13.294;2024-01-11T08:17:53;-1.70;42.30
18577;DHT22;9418;52.694;13.294;2024-01-11T08:20:19;-1.70;43.20
18577;DHT22;9418;52.694;13.294;2024-01-11T08:22:46;-1.70;43.60
18577;DHT22;9418;52.694;13.294;2024-01-11T08:25:14;-1.70;41.60
18577;DHT22;9418;52.694;13.294;2024-01-11T08:27:41;-1.60;40.70
18577;DHT22;9418;52.694;13.294;2024-01-11T08:30:08;-1.60;39.20
18577;DHT22;9418;52.694;13.294;2024-01-11T08:32:35;-1.60;39.30
18577;DHT22;9418;52.694;13.294;2024-01-11T08:35:05;-1.50;37.10
18577;DHT22;9418;52.694;13.294;2024-01-11T08:37:31;-1.50;37.40
18577;DHT22;9418;52.694;13.294;2024-01-11T08:39:58;-1.40;37.60
18577;DHT22;9418;52.694;13.294;2024-01-11T08:42:26;-1.40;38.70
18577;DHT22;9418;52.694;13.294;2024-01-11T08:44:53;-1.40;38.50
18577;DHT22;9418;52.694;13.294;2024-01-11T08:47:20;-1.40;38.00
18577;DHT22;9418;52.694;13.294;2024-01-11T08:49:46;-1.40;41.60
18577;DHT22;9418;52.694;13.294;2024-01-11T08:52:13;-1.30;39.60
18577;DHT22;9418;52.694;13.294;2024-01-11T08:54:40;-1.30;40.30
18577;DHT22;9418;52.694;13.294;2024-01-11T08:57:06;-1.30;40.90
18577;DHT22;9418;52.694;13.294;2024-01-11T08:59:34;-1.30;39.50
18577;DHT22;9418;52.694;13.294;2024-01-11T09:02:00;-1.20;39.10
18577;DHT22;9418;52.694;13.294;2024-01-11T09:04:27;-1.20;38.20
18577;DHT22;9418;52.694;13.294;2024-01-11T09:06:55;-1.20;37.70
18577;DHT22;9418;52.694;13.294;2024-01-11T09:09:22;-1.30;39.80
18577;DHT22;9418;52.694;13.294;2024-01-11T09:11:49;-1.10;38.00
18577;DHT22;9418;52.694;13.294;2024-01-11T09:14:15;-1.10;39.00
18577;DHT22;9418;52.694;13.294;2024-01-11T09:16:43;-1.20;41.10
18577;DHT22;9418;52.694;13.294;2024-01-11T09:19:11;-1.10;38.90
18577;DHT22;9418;52.694;13.294;2024-01-11T09:21:38;-1.10;38.50
18577;DHT22;9418;52.694;13.294;2024-01-11T09:24:04;-1.20;42.00
18577;DHT22;9418;52.694;13.294;2024-01-11T09:26:31;-1.20;39.30
18577;DHT22;9418;52.694;13.294;2024-01-11T09:28:57;-1.10;37.90
18577;DHT22;9418;52.694;13.294;2024-01-11T09:31:24;-1.10;37.50
18577;DHT22;9418;52.694;13.294;2024-01-11T09:33:52;-1.10;37.10
18577;DHT22;9418;52.694;13.294;2024-01-11T09:36:19;-1.10;37.40
18577;DHT22;9418;52.694;13.294;2024-01-11T09:38:46;-1.10;37.80
18577;DHT22;9418;52.694;13.294;2024-01-11T09:41:14;-1.10;38.30
18577;DHT22;9418;52.694;13.294;2024-01-11T09:43:41;-1.10;37.70
18577;DHT22;9418;52.694;13.294;2024-01-11T09:46:10;-1.10;38.70
18577;DHT22;9418;52.694;13.294;2024-01-11T09:48:38;-1.10;36.70
18577;DHT22;9418;52.694;13.294;2024-01-11T09:51:09;-1.20;36.40
18577;DHT22;9418;52.694;13.294;2024-01-11T09:53:37;-1.10;34.20
18577;DHT22;9418;52.694;13.294;2024-01-11T09:56:07;-1.00;34.30
18577;DHT22;9418;52.694;13.294;2024-01-11T09:58:35;-1.00;34.30
18577;DHT22;9418;52.694;13.294;2024-01-11T10:01:07;-1.00;34.50
18577;DHT22;9418;52.694;13.294;2024-01-11T10:03:34;-1.00;35.60
18577;DHT22;9418;52.694;13.294;2024-01-11T10:06:02;-0.90;33.80
18577;DHT22;9418;52.694;13.294;2024-01-11T10:08:31;-0.90;35.90
18577;DHT22;9418;52.694;13.294;2024-01-11T10:10:59;-0.90;37.60
18577;DHT22;9418;52.694;13.294;2024-01-11T10:13:27;-0.90;38.10
18577;DHT22;9418;52.694;13.294;2024-01-11T10:16:05;-0.90;37.90
18577;DHT22;9418;52.694;13.294;2024-01-11T10:18:32;-0.90;38.70
18577;DHT22;9418;52.694;13.294;2024-01-11T10:20:59;-0.90;37.10
18577;DHT22;9418;52.694;13.294;2024-01-11T10:23:26;-0.80;35.80
18577;DHT22;9418;52.694;13.294;2024-01-11T10:25:56;-0.90;37.40
18577;DHT22;9418;52.694;13.294;2024-01-11T10:28:23;-0.90;36.00
18577;DHT22;9418;52.694;13.294;2024-01-11T10:30:50;-0.90;37.40
18577;DHT22;9418;52.694;13.294;2024-01-11T10:33:19;-0.80;35.50
18577;DHT22;9418;52.694;13.294;2024-01-11T10:35:46;-0.80;33.50
18577;DHT22;9418;52.694;13.294;2024-01-11T10:38:14;-0.80;36.60
18577;DHT22;9418;52.694;13.294;2024-01-11T10:40:41;-0.80;37.20
18577;DHT22;9418;52.694;13.294;2024-01-11T10:43:10;-0.80;37.70
18577;DHT22;9418;52.694;13.294;2024-01-11T10:45:37;-0.80;36.40
18577;DHT22;9418;52.694;13.294;2024-01-11T10:48:07;-0.80;36.80
18577;DHT22;9418;52.694;13.294;2024-01-11T10:50:35;-0.70;34.90
18577;DHT22;9418;52.694;13.294;2024-01-11T10:53:04;-0.70;35.10
18577;DHT22;9418;52.694;13.294;2024-01-11T10:55:37;-0.60;34.80
18577;DHT22;9418;52.694;13.294;2024-01-11T10:58:06;-0.70;34.40
18577;DHT22;9418;52.694;13.294;2024-01-11T11:00:35;-0.70;38.30
18577;DHT22;9418;52.694;13.294;2024-01-11T11:03:03;-0.80;39.40
18577;DHT22;9418;52.694;13.294;2024-01-11T11:05:32;-0.80;35.70
18577;DHT22;9418;52.694;13.294;2024-01-11T11:08:01;-0.80;34.70
18577;DHT22;9418;52.694;13.294;2024-01-11T11:10:28;-0.70;33.80
18577;DHT22;9418;52.694;13.294;2024-01-11T11:12:57;-0.80;35.80
18577;DHT22;9418;52.694;13.294;2024-01-11T11:15:27;-0.80;37.20
18577;DHT22;9418;52.694;13.294;2024-01-11T11:17:55;-0.80;34.50
18577;DHT22;9418;52.694;13.294;2024-01-11T11:20:22;-0.70;32.80
18577;DHT22;9418;52.694;13.294;2024-01-11T11:23:03;-0.70;32.10
18577;DHT22;9418;52.694;13.294;2024-01-11T11:25:30;-0.70;33.60
18577;DHT22;9418;52.694;13.294;2024-01-11T11:27:57;-0.70;32.50
18577;DHT22;9418;52.694;13.294;2024-01-11T11:30:24;-0.70;30.70
18577;DHT22;9418;52.694;13.294;2024-01-11T11:32:50;-0.70;30.10
18577;DHT22;9418;52.694;13.294;2024-01-11T11:35:19;-0.60;29.50
18577;DHT22;9418;52.694;13.294;2024-01-11T11:37:46;-0.60;30.60
18577;DHT22;9418;52.694;13.294;2024-01-11T11:40:14;-0.60;31.90
18577;DHT22;9418;52.694;13.294;2024-01-11T11:42:42;-0.60;31.40
18577;DHT22;9418;52.694;13.294;2024-01-11T11:45:08;-0.50;29.80
18577;DHT22;9418;52.694;13.294;2024-01-11T11:47:37;-0.50;32.30
18577;DHT22;9418;52.694;13.294;2024-01-11T11:50:05;-0.60;32.90
18577;DHT22;9418;52.694;13.294;2024-01-11T11:52:34;-0.50;31.50
18577;DHT22;9418;52.694;13.294;2024-01-11T11:55:01;-0.50;31.20
18577;DHT22;9418;52.694;13.294;2024-01-11T11:57:28;-0.50;30.50
18577;DHT22;9418;52.694;13.294;2024-01-11T11:59:56;-0.40;31.10
18577;DHT22;9418;52.694;13.294;2024-01-11T12:02:25;-0.40;30.90
18577;DHT22;9418;52.694;13.294;2024-01-11T12:04:52;-0.30;30.40
18577;DHT22;9418;52.694;13.294;2024-01-11T12:07:19;-0.40;31.70
18577;DHT22;9418;52.694;13.294;2024-01-11T12:09:48;-0.30;30.80
18577;DHT22;9418;52.694;13.294;2024-01-11T12:12:15;-0.30;30.80
18577;DHT22;9418;52.694;13.294;2024-01-11T12:14:43;-0.30;35.20
18577;DHT22;9418;52.694;13.294;2024-01-11T12:17:09;-0.30;33.60
18577;DHT22;9418;52.694;13.294;2024-01-11T12:19:36;-0.30;34.00
18577;DHT22;9418;52.694;13.294;2024-01-11T12:22:03;-0.20;34.00
18577;DHT22;9418;52.694;13.294;2024-01-11T12:24:29;-0.20;38.20
18577;DHT22;9418;52.694;13.294;2024-01-11T12:26:57;-0.20;37.20
18577;DHT22;9418;52.694;13.294;2024-01-11T12:29:24;-0.10;34.60
18577;DHT22;9418;52.694;13.294;2024-01-11T12:31:51;-0.10;37.50
18577;DHT22;9418;52.694;13.294;2024-01-11T12:34:17;0.00;36.20
18577;DHT22;9418;52.694;13.294;2024-01-11T12:36:44;0.00;36.70
18577;DHT22;9418;52.694;13.294;2024-01-11T12:39:11;0.00;43.50
18577;DHT22;9418;52.694;13.294;2024-01-11T12:41:39;-0.10;45.40
18577;DHT22;9418;52.694;13.294;2024-01-11T12:44:08;-0.10;46.20
18577;DHT22;9418;52.694;13.294;2024-01-11T12:46:35;0.00;44.80
18577;DHT22;9418;52.694;13.294;2024-01-11T12:49:02;-0.10;45.00
18577;DHT22;9418;52.694;13.294;2024-01-11T12:51:28;0.00;44.50
18577;DHT22;9418;52.694;13.294;2024-01-11T12:53:57;-0.10;46.10
18577;DHT22;9418;52.694;13.294;2024-01-11T12:56:24;0.00;43.10
18577;DHT22;9418;52.694;13.294;2024-01-11T12:58:50;0.00;43.40
18577;DHT22;9418;52.694;13.294;2024-01-11T13:01:18;-0.10;45.50
18577;DHT22;9418;52.694;13.294;2024-01-11T13:03:46;-0.10;45.50
18577;DHT22;9418;52.694;13.294;2024-01-11T13:06:15;-0.20;43.00
18577;DHT22;9418;52.694;13.294;2024-01-11T13:08:42;-0.20;42.00
18577;DHT22;9418;52.694;13.294;2024-01-11T13:11:09;-0.20;40.80
18577;DHT22;9418;52.694;13.294;2024-01-11T13:13:38;-0.20;42.90
18577;DHT22;9418;52.694;13.294;2024-01-11T13:16:04;-0.20;40.70
18577;DHT22;9418;52.694;13.294;2024-01-11T13:18:37;-0.20;39.90
18577;DHT22;9418;52.694;13.294;2024-01-11T13:21:04;-0.20;38.50
18577;DHT22;9418;52.694;13.294;2024-01-11T13:23:32;-0.20;36.50
18577;DHT22;9418;52.694;13.294;2024-01-11T13:25:59;-0.20;37.00
18577;DHT22;9418;52.694;13.294;2024-01-11T13:28:25;-0.20;37.90
18577;DHT22;9418;52.694;13.294;2024-01-11T13:30:52;-0.20;34.50
18577;DHT22;9418;52.694;13.294;2024-01-11T13:33:18;-0.20;36.90
18577;DHT22;9418;52.694;13.294;2024-01-11T13:35:49;-0.20;33.70
18577;DHT22;9418;52.694;13.294;2024-01-11T13:38:16;-0.30;34.40
18577;DHT22;9418;52.694;13.294;2024-01-11T13:40:42;-0.30;34.30
18577;DHT22;9418;52.694;13.294;2024-01-11T13:43:09;-0.30;32.40
18577;DHT22;9418;52.694;13.294;2024-01-11T13:45:36;-0.30;33.10
18577;DHT22;9418;52.694;13.294;2024-01-11T13:48:03;-0.30;31.50
18577;DHT22;9418;52.694;13.294;2024-01-11T13:50:30;-0.30;30.40
18577;DHT22;9418;52.694;13.294;2024-01-11T13:52:59;-0.30;32.00
18577;DHT22;9418;52.694;13.294;2024-01-11T13:55:25;-0.30;31.80
18577;DHT22;9418;52.694;13.294;2024-01-11T13:57:52;-0.40;33.70
18577;DHT22;9418;52.694;13.294;2024-01-11T14:00:19;-0.40;32.40
18577;DHT22;9418;52.694;13.294;2024-01-11T14:02:46;-0.30;32.10
18577;DHT22;9418;52.694;13.294;2024-01-11T14:05:13;-0.40;33.00
18577;DHT22;9418;52.694;13.294;2024-01-11T14:07:43;-0.40;32.80
18577;DHT22;9418;52.694;13.294;2024-01-11T14:10:12;-0.40;33.90
18577;DHT22;9418;52.694;13.294;2024-01-11T14:12:39;-0.40;31.80
18577;DHT22;9418;52.694;13.294;2024-01-11T14:15:08;-0.50;31.90
18577;DHT22;9418;52.694;13.294;2024-01-11T14:17:37;-0.40;31.90
18577;DHT22;9418;52.694;13.294;2024-01-11T14:20:04;-0.40;28.30
18577;DHT22;9418;52.694;13.294;2024-01-11T14:22:35;-0.40;28.30
18577;DHT22;9418;52.694;13.294;2024-01-11T14:25:01;-0.40;27.60
18577;DHT22;9418;52.694;13.294;2024-01-11T14:27:30;-0.40;27.80
18577;DHT22;9418;52.694;13.294;2024-01-11T14:29:56;-0.40;29.20
18577;DHT22;9418;52.694;13.294;2024-01-11T14:32:24;-0.50;27.80
18577;DHT22;9418;52.694;13.294;2024-01-11T14:34:52;-0.40;26.00
18577;DHT22;9418;52.694;13.294;2024-01-11T14:37:18;-0.40;27.00
18577;DHT22;9418;52.694;13.294;2024-01-11T14:39:45;-0.50;26.60
18577;DHT22;9418;52.694;13.294;2024-01-11T14:42:12;-0.50;27.40
18577;DHT22;9418;52.694;13.294;2024-01-11T14:44:39;-0.50;27.20
18577;DHT22;9418;52.694;13.294;2024-01-11T14:47:06;-0.50;27.40
18577;DHT22;9418;52.694;13.294;2024-01-11T14:49:33;-0.60;27.20
18577;DHT22;9418;52.694;13.294;2024-01-11T14:51:59;-0.50;25.10
18577;DHT22;9418;52.694;13.294;2024-01-11T14:54:26;-0.50;25.60
18577;DHT22;9418;52.694;13.294;2024-01-11T14:56:53;-0.60;25.60
18577;DHT22;9418;52.694;13.294;2024-01-11T14:59:19;-0.60;25.30
18577;DHT22;9418;52.694;13.294;2024-01-11T15:01:47;-0.50;24.00
18577;DHT22;9418;52.694;13.294;2024-01-11T15:04:14;-0.60;23.10
18577;DHT22;9418;52.694;13.294;2024-01-11T15:06:40;-0.60;22.90
18577;DHT22;9418;52.694;13.294;2024-01-11T15:09:07;-0.50;21.90
18577;DHT22;9418;52.694;13.294;2024-01-11T15:11:37;-0.50;21.30
18577;DHT22;9418;52.694;13.294;2024-01-11T15:14:05;-0.50;20.40
18577;DHT22;9418;52.694;13.294;2024-01-11T15:16:31;-0.50;20.30
18577;DHT22;9418;52.694;13.294;2024-01-11T15:18:59;-0.40;72.30
18577;DHT22;9418;52.694;13.294;2024-01-11T15:21:26;-0.40;77.00
18577;DHT22;9418;52.694;13.294;2024-01-11T15:23:53;-0.40;77.70
18577;DHT22;9418;52.694;13.294;2024-01-11T15:26:20;-0.40;81.70
18577;DHT22;9418;52.694;13.294;2024-01-11T15:28:47;-0.40;85.70
18577;DHT22;9418;52.694;13.294;2024-01-11T15:31:13;-0.30;88.50